Time;durP1;ratioP1;P1;durP2;ratioP2;P2;SDS_P1;SDS_P2;PMS_P1;PMS_P2;Temp;Humidity;BMP_temperature;BMP_pressure;BME280_temperature;BME280_humidity;BME280_pressure;Samples;Min_cycle;Max_cycle;Signal;HPM_P1;HPM_P2
2023/10/06 00:02:16;;;;;;;7.70;6.20;;;;;;;10.51;75.29;101219.70;108521;1283;23728;-77
2023/10/06 00:06:18;;;;;;;9.80;6.10;;;;;;;10.49;75.28;101222.00;108557;1283;22211;-76
2023/10/06 00:09:19;;;;;;;8.60;6.30;;;;;;;10.45;75.23;101221.94;108934;1277;23040;-77
2023/10/06 00:23:30;;;;;;;9.60;6.20;;;;;;;11.66;71.13;101222.52;107954;1288;549609;-75
2023/10/06 00:27:42;;;;;;;8.00;6.70;;;;;;;11.51;70.25;101228.11;106754;1275;23089;-75
2023/10/06 00:30:45;;;;;;;10.10;7.00;;;;;;;11.07;71.19;101227.03;109166;1275;21979;-77
2023/10/06 00:33:40;;;;;;;8.00;6.50;;;;;;;10.84;71.66;101230.92;109120;1275;22170;-75
2023/10/06 00:37:45;;;;;;;8.70;6.60;;;;;;;10.66;72.30;101232.25;110155;1266;22229;-76
2023/10/06 00:41:06;;;;;;;;;;;;;;;;;;;;;
2023/10/06 00:43:54;;;;;;;;;;;;;;;;;;;;;
2023/10/06 00:47:09;;;;;;;7.80;6.70;;;;;;;10.27;73.20;101242.17;109615;1268;22065;-76
2023/10/06 00:50:35;;;;;;;9.00;8.20;;;;;;;10.18;73.48;101246.37;110222;1265;23644;-76
2023/10/06 00:54:27;;;;;;;;;;;;;;;;;;;;;
2023/10/06 00:58:01;;;;;;;14.90;12.90;;;;;;;10.09;74.65;101258.53;109298;1273;23099;-76
2023/10/06 01:01:39;;;;;;;17.20;15.70;;;;;;;10.14;75.03;101265.56;108866;1277;22005;-76
2023/10/06 01:04:35;;;;;;;18.70;16.60;;;;;;;10.21;75.32;101272.92;108589;1282;21990;-75
2023/10/06 01:08:30;;;;;;;21.90;18.70;;;;;;;10.26;75.39;101280.97;108258;1287;22004;-75
2023/10/06 01:15:29;;;;;;;26.40;21.30;;;;;;;10.36;76.01;101283.38;108192;1288;21997;-75
2023/10/06 01:18:41;;;;;;;27.70;23.60;;;;;;;10.43;76.04;101281.66;108431;1277;23052;-77
2023/10/06 01:22:41;;;;;;;29.00;23.20;;;;;;;10.49;76.36;101287.63;108742;1279;23049;-77
2023/10/06 01:25:44;;;;;;;;;;;;;;;;;;;;;
2023/10/06 01:29:13;;;;;;;30.60;24.20;;;;;;;10.60;76.68;101285.46;108444;1285;21998;-77
2023/10/06 01:33:06;;;;;;;;;;;;;;;;;;;;;
2023/10/06 01:36:58;;;;;;;25.00;22.10;;;;;;;10.71;76.95;101281.54;108667;1280;23762;-77
2023/10/06 01:43:35;;;;;;;22.90;20.60;;;;;;;10.83;77.32;101276.56;109303;1274;22462;-77
2023/10/06 01:47:18;;;;;;;21.20;18.80;;;;;;;10.89;77.42;101271.55;109233;1274;21980;-76
2023/10/06 01:50:53;;;;;;;20.90;18.90;;;;;;;10.96;77.44;101270.50;109129;1274;21985;-77
2023/10/06 01:54:28;;;;;;;;;;;;;;;;;;;;;
2023/10/06 01:58:04;;;;;;;21.80;19.70;;;;;;;11.06;77.56;101285.05;110528;1263;22157;-76
2023/10/06 02:01:45;;;;;;;;;;;;;;;;;;;;;
2023/10/06 02:05:07;;;;;;;;;;;;;;;;;;;;;
2023/10/06 02:08:36;;;;;;;;;;;;;;;;;;;;;
2023/10/06 02:12:06;;;;;;;19.80;17.80;;;;;;;11.20;77.80;101287.14;110517;1263;21972;-77
2023/10/06 02:15:34;;;;;;;24.10;21.70;;;;;;;11.22;77.86;101283.43;109819;1264;21953;-78
2023/10/06 02:19:08;;;;;;;;;;;;;;;;;;;;;
2023/10/06 02:22:46;;;;;;;23.50;21.00;;;;;;;11.28;77.86;101292.32;110190;1268;23717;-78
2023/10/06 02:26:18;;;;;;;;;;;;;;;;;;;;;
2023/10/06 02:33:09;;;;;;;23.70;21.40;;;;;;;11.33;77.82;101291.68;108882;1277;21983;-78
2023/10/06 02:37:13;;;;;;;24.00;21.80;;;;;;;11.37;78.03;101293.17;108505;1284;22002;-76
2023/10/06 02:40:47;;;;;;;;;;;;;;;;;;;;;
2023/10/06 02:47:25;;;;;;;21.20;19.20;;;;;;;11.42;77.82;101302.27;108788;1274;21985;-77
2023/10/06 02:50:23;;;;;;;22.90;20.20;;;;;;;11.39;77.54;101299.38;108940;1279;21988;-75
2023/10/06 02:58:15;;;;;;;;;;;;;;;;;;;;;
2023/10/06 03:05:01;;;;;;;19.80;17.30;;;;;;;11.34;77.78;101289.06;108442;1282;23011;-76
2023/10/06 03:08:19;;;;;;;19.80;17.90;;;;;;;11.41;77.89;101302.11;108547;1282;22002;-76
2023/10/06 03:11:49;;;;;;;;;;;;;;;;;;;;;
2023/10/06 03:15:35;;;;;;;19.50;17.20;;;;;;;11.45;77.66;101305.84;108463;1283;22011;-77
2023/10/06 03:18:37;;;;;;;;;;;;;;;;;;;;;
2023/10/06 03:21:55;;;;;;;;;;;;;;;;;;;;;
2023/10/06 03:25:13;;;;;;;;;;;;;;;;;;;;;
2023/10/06 03:28:01;;;;;;;21.20;19.10;;;;;;;11.46;77.83;101306.16;109214;1271;22972;-76
2023/10/06 03:31:30;;;;;;;22.50;20.50;;;;;;;11.47;77.76;101305.44;109372;1261;23037;-76
2023/10/06 03:39:38;;;;;;;22.10;19.90;;;;;;;11.44;78.03;101306.58;109315;1274;21979;-75
2023/10/06 03:42:30;;;;;;;17.00;15.60;;;;;;;11.48;77.86;101308.04;109034;1274;22848;-77
2023/10/06 03:45:51;;;;;;;;;;;;;;;;;;;;;
2023/10/06 03:49:29;;;;;;;;;;;;;;;;;;;;;
2023/10/06 03:54:01;;;;;;;;;;;;;;;;;;;;;
2023/10/06 03:58:15;;;;;;;16.80;15.20;;;;;;;11.48;77.83;101303.85;107802;1292;22004;-77
2023/10/06 04:01:24;;;;;;;;;;;;;;;;;;;;;
2023/10/06 04:04:26;;;;;;;17.40;15.60;;;;;;;11.49;77.83;101309.05;108203;1285;22002;-79
2023/10/06 04:08:07;;;;;;;16.50;14.80;;;;;;;11.51;77.80;101313.20;108281;1285;22003;-78
2023/10/06 04:10:54;;;;;;;17.90;15.10;;;;;;;11.54;77.64;101314.69;108459;1278;23144;-78
2023/10/06 04:13:41;;;;;;;;;;;;;;;11.51;77.58;101304.30;108744;1272;21961;-78
2023/10/06 04:17:14;;;;;;;17.00;15.30;;;;;;;11.49;77.83;101318.13;109221;1272;22000;-78
2023/10/06 04:21:12;;;;;;;;;;;;;;;;;;;;;
2023/10/06 04:24:22;;;;;;;14.40;12.60;;;;;;;11.52;77.74;101327.62;109369;1272;21985;-77
2023/10/06 04:27:18;;;;;;;16.50;14.80;;;;;;;11.55;77.66;101328.23;109262;1272;21984;-74
2023/10/06 04:31:15;;;;;;;15.80;14.30;;;;;;;11.49;77.87;101312.89;108742;1280;23761;-77
2023/10/06 04:34:44;;;;;;;18.40;15.60;;;;;;;11.51;77.69;101308.66;109048;1272;22000;-75
2023/10/06 04:37:50;;;;;;;16.20;14.50;;;;;;;11.58;77.51;101324.88;108973;1277;22000;-76
2023/10/06 04:41:41;;;;;;;17.40;15.10;;;;;;;11.55;77.60;101335.41;108530;1284;23031;-76
2023/10/06 04:49:07;;;;;;;15.90;13.20;;;;;;;11.60;77.67;101343.30;108348;1284;23056;-76
2023/10/06 04:52:00;;;;;;;17.10;14.50;;;;;;;11.61;77.51;101344.48;108373;1284;22165;-76
2023/10/06 04:55:32;;;;;;;15.00;13.40;;;;;;;11.56;77.50;101325.25;107807;1292;22999;-77
2023/10/06 04:58:31;;;;;;;16.10;14.50;;;;;;;11.60;77.28;101333.33;107655;1286;21996;-76
2023/10/06 05:02:21;;;;;;;18.50;12.60;;;;;;;11.58;77.40;101342.46;108346;1286;22000;-75
2023/10/06 05:05:33;;;;;;;16.60;13.20;;;;;;;11.58;77.36;101334.45;108353;1286;23663;-76
2023/10/06 05:08:17;;;;;;;13.80;12.40;;;;;;;11.61;77.39;101346.22;108407;1281;23613;-76
2023/10/06 05:11:47;;;;;;;13.00;11.30;;;;;;;11.62;77.50;101351.94;108820;1272;23005;-76
2023/10/06 05:15:55;;;;;;;;;;;;;;;;;;;;;
2023/10/06 05:18:56;;;;;;;15.30;11.10;;;;;;;11.57;77.29;101342.48;109774;1265;21981;-76
2023/10/06 05:22:36;;;;;;;;;;;;;;;;;;;;;
2023/10/06 05:26:13;;;;;;;;;;;;;;;;;;;;;
2023/10/06 05:29:34;;;;;;;12.70;9.50;;;;;;;11.61;77.15;101369.41;109037;1274;24183;-75
2023/10/06 05:33:53;;;;;;;;;;;;;;;;;;;;;
2023/10/06 05:37:22;;;;;;;19.60;11.60;;;;;;;11.59;77.14;101372.61;108443;1282;22009;-76
2023/10/06 05:40:12;;;;;;;21.70;12.10;;;;;;;11.63;76.97;101373.55;108548;1283;23085;-76
2023/10/06 05:43:28;;;;;;;18.50;13.30;;;;;;;11.67;77.18;101375.54;108199;1286;22227;-76
2023/10/06 05:46:47;;;;;;;15.80;10.60;;;;;;;11.72;76.98;101381.52;108183;1289;22030;-77
2023/10/06 05:49:58;;;;;;;;;;;;;;;;;;;;;
2023/10/06 05:52:51;;;;;;;12.40;9.40;;;;;;;11.79;76.85;101392.31;108115;1289;22002;-77
2023/10/06 05:56:19;;;;;;;17.50;11.90;;;;;;;11.83;76.84;101395.85;107945;1289;22008;-78
2023/10/06 05:59:25;;;;;;;12.80;10.60;;;;;;;11.86;76.80;101398.40;108174;1289;21999;-78
2023/10/06 06:02:00;;;;;;;12.90;9.20;;;;;;;11.91;76.72;101402.64;108356;1285;21991;-79
2023/10/06 06:04:34;;;;;;;11.90;8.50;;;;;;;11.97;76.69;101402.84;108262;1281;22006;-77
2023/10/06 06:07:03;;;;;;;14.30;8.80;;;;;;;12.03;76.48;101405.48;108516;1281;22031;-77
2023/10/06 06:09:42;;;;;;;17.20;10.40;;;;;;;12.10;76.31;101405.48;108479;1281;21997;-76
2023/10/06 06:12:42;;;;;;;;;;;;;;;;;;;;;
2023/10/06 06:16:00;;;;;;;13.80;9.80;;;;;;;12.23;76.08;101404.24;109242;1273;22059;-76
2023/10/06 06:19:37;;;;;;;10.50;9.40;;;;;;;12.25;75.98;101399.83;109172;1273;24448;-77
2023/10/06 06:23:06;;;;;;;15.20;11.40;;;;;;;12.29;75.65;101400.07;108844;1277;22235;-77
2023/10/06 06:26:28;;;;;;;;;;;;;;;;;;;;;
2023/10/06 06:30:16;;;;;;;;;;;;;;;;;;;;;
2023/10/06 06:33:58;;;;;;;;;;;;;;;;;;;;;
2023/10/06 06:36:36;;;;;;;17.00;11.40;;;;;;;12.46;75.12;101408.83;108220;1285;21988;-78
2023/10/06 06:40:19;;;;;;;13.70;8.90;;;;;;;12.51;74.71;101415.67;108534;1275;22000;-78
2023/10/06 06:43:44;;;;;;;;;;;;;;;;;;;;;
2023/10/06 06:47:26;;;;;;;;;;;;;;;;;;;;;
2023/10/06 06:50:37;;;;;;;10.60;7.00;;;;;;;12.66;74.13;101419.59;108383;1284;21995;-76
2023/10/06 06:53:28;;;;;;;10.60;8.20;;;;;;;12.71;73.99;101421.73;108415;1284;22007;-76
2023/10/06 06:56:52;;;;;;;12.50;8.90;;;;;;;12.75;74.00;101422.11;108426;1284;21993;-76
2023/10/06 06:59:39;;;;;;;14.30;9.00;;;;;;;12.80;73.90;101421.63;108285;1279;22023;-75
2023/10/06 07:02:14;;;;;;;27.50;10.10;;;;;;;12.86;73.67;101421.80;108848;1278;22084;-76
2023/10/06 07:04:47;;;;;;;13.60;8.30;;;;;;;12.89;73.41;101420.13;108692;1278;22790;-76
2023/10/06 07:07:24;;;;;;;9.80;8.80;;;;;;;12.89;73.15;101423.27;108869;1278;21981;-77
2023/10/06 07:10:14;;;;;;;11.30;8.40;;;;;;;12.91;73.23;101425.67;109308;1273;22079;-83
2023/10/06 07:13:24;;;;;;;16.40;14.60;;;;;;;12.95;73.17;101426.61;109327;1272;22032;-77
2023/10/06 07:16:05;;;;;;;17.30;12.40;;;;;;;12.98;73.09;101423.33;109352;1272;23821;-81
2023/10/06 07:18:37;;;;;;;15.70;12.10;;;;;;;13.02;72.88;101421.47;109974;1267;22373;-75
2023/10/06 07:21:17;;;;;;;15.00;13.60;;;;;;;13.06;72.76;101413.31;110142;1265;22013;-76
2023/10/06 07:23:52;;;;;;;17.90;13.80;;;;;;;13.12;72.77;101415.92;109728;1270;22429;-75
2023/10/06 07:26:28;;;;;;;14.50;12.40;;;;;;;13.18;72.63;101415.74;109650;1270;21990;-75
2023/10/06 07:29:17;;;;;;;17.30;12.40;;;;;;;13.22;72.64;101410.70;109531;1270;22729;-74
2023/10/06 07:32:05;;;;;;;13.50;11.20;;;;;;;13.26;72.56;101406.08;109525;1270;23716;-74
2023/10/06 07:35:12;;;;;;;20.00;13.30;;;;;;;13.34;72.17;101409.33;109383;1270;23045;-74
2023/10/06 07:38:03;;;;;;;21.40;13.00;;;;;;;13.45;72.18;101412.45;109287;1273;23054;-74
2023/10/06 07:40:35;;;;;;;16.50;13.30;;;;;;;13.56;72.28;101406.67;109298;1273;23023;-75
2023/10/06 07:43:15;;;;;;;14.00;12.50;;;;;;;13.69;72.14;101405.71;109084;1273;23015;-75
2023/10/06 07:45:59;;;;;;;20.30;14.10;;;;;;;13.78;71.72;101403.14;109168;1273;23830;-80
2023/10/06 07:48:46;;;;;;;17.10;14.60;;;;;;;13.84;71.34;101395.25;109378;1269;23144;-79
2023/10/06 07:51:48;;;;;;;16.80;12.80;;;;;;;13.88;70.90;101392.12;109943;1269;21959;-78
2023/10/06 07:54:43;;;;;;;15.10;13.60;;;;;;;13.90;70.62;101392.04;109765;1269;21980;-79
2023/10/06 07:57:32;;;;;;;15.00;11.30;;;;;;;13.90;70.41;101382.06;110275;1266;22723;-79
2023/10/06 08:00:06;;;;;;;14.50;11.40;;;;;;;13.89;69.95;101378.95;110158;1265;23612;-77
2023/10/06 08:02:54;;;;;;;13.40;11.70;;;;;;;13.90;70.13;101377.17;110107;1265;22007;-79
2023/10/06 08:05:32;;;;;;;15.90;11.10;;;;;;;13.92;70.14;101379.54;109342;1272;22849;-78
2023/10/06 08:08:41;;;;;;;15.10;10.80;;;;;;;14.00;70.39;101380.49;109672;1272;21991;-78
2023/10/06 08:11:39;;;;;;;13.50;10.10;;;;;;;14.06;70.09;101380.29;109540;1273;23041;-77
2023/10/06 08:14:19;;;;;;;13.90;9.80;;;;;;;14.11;70.00;101381.85;109148;1273;22025;-81
2023/10/06 08:17:06;;;;;;;22.10;19.30;;;;;;;14.12;69.88;101371.81;109314;1273;23078;-78
2023/10/06 08:19:40;;;;;;;18.90;10.40;;;;;;;14.25;69.53;101378.02;109299;1272;23828;-80
2023/10/06 08:22:10;;;;;;;11.70;10.50;;;;;;;14.26;69.12;101377.27;109378;1272;22253;-78
2023/10/06 08:24:43;;;;;;;14.60;9.70;;;;;;;14.30;69.12;101384.66;110273;1265;23761;-80
2023/10/06 08:27:33;;;;;;;14.70;9.20;;;;;;;14.37;69.16;101388.78;111205;1254;22054;-76
2023/10/06 08:30:34;;;;;;;16.40;8.00;;;;;;;14.37;69.01;101382.66;110615;1267;21994;-76
2023/10/06 08:33:43;;;;;;;;;;;;;;;;;;;;;
2023/10/06 08:36:23;;;;;;;15.70;9.10;;;;;;;14.56;68.14;101402.63;110718;1251;22083;-76
2023/10/06 08:39:08;;;;;;;14.10;8.10;;;;;;;14.55;67.71;101407.03;110268;1265;22008;-77
2023/10/06 08:41:46;;;;;;;10.70;7.40;;;;;;;14.54;67.67;101407.23;109547;1271;22744;-79
2023/10/06 08:44:46;;;;;;;10.90;6.90;;;;;;;14.61;68.04;101401.93;108974;1276;22307;-78
2023/10/06 08:47:45;;;;;;;10.30;6.90;;;;;;;14.79;68.59;101395.98;109041;1276;21986;-78
2023/10/06 08:50:41;;;;;;;15.40;6.70;;;;;;;15.10;68.91;101391.77;108932;1276;21984;-79
2023/10/06 08:54:17;;;;;;;10.00;6.30;;;;;;;15.50;68.81;101392.41;108913;1276;22041;-79
2023/10/06 08:56:48;;;;;;;11.30;6.90;;;;;;;15.88;68.08;101392.45;109140;1276;21999;-78
2023/10/06 08:59:39;;;;;;;10.50;6.10;;;;;;;16.26;67.80;101392.16;108685;1276;21985;-78
2023/10/06 09:02:16;;;;;;;9.70;6.90;;;;;;;16.59;66.05;101387.84;109157;1271;22005;-78
2023/10/06 09:04:54;;;;;;;29.30;8.30;;;;;;;16.95;65.77;101383.73;109354;1271;21974;-77
2023/10/06 09:08:07;;;;;;;14.00;5.80;;;;;;;17.47;65.35;101375.89;109352;1271;23901;-82
2023/10/06 09:10:56;;;;;;;20.10;6.70;;;;;;;18.05;63.52;101369.42;109073;1273;23042;-78
2023/10/06 09:14:10;;;;;;;17.20;5.90;;;;;;;18.42;61.40;101370.77;109034;1276;23762;-79
2023/10/06 09:17:30;;;;;;;14.60;5.20;;;;;;;18.85;59.98;101371.76;108908;1273;23139;-79
2023/10/06 09:20:47;;;;;;;11.50;5.90;;;;;;;19.19;57.92;101377.82;109326;1273;23719;-78
2023/10/06 09:23:33;;;;;;;7.80;4.60;;;;;;;19.11;56.00;101377.55;109347;1274;22244;-76
2023/10/06 09:26:27;;;;;;;9.60;4.80;;;;;;;18.97;55.47;101371.81;109084;1274;21990;-77
2023/10/06 09:29:02;;;;;;;10.20;4.70;;;;;;;18.81;55.76;101363.52;109316;1272;22462;-77
2023/10/06 09:31:41;;;;;;;9.30;5.10;;;;;;;18.69;55.84;101352.52;109316;1272;22745;-78
2023/10/06 09:34:28;;;;;;;12.40;8.50;;;;;;;18.61;55.85;101341.02;109265;1273;23696;-77
2023/10/06 09:37:35;;;;;;;12.30;5.50;;;;;;;18.56;56.24;101335.50;109275;1272;21979;-76
2023/10/06 09:40:20;;;;;;;11.20;6.60;;;;;;;18.77;57.06;101341.55;108877;1278;21988;-77
2023/10/06 09:42:56;;;;;;;8.20;4.50;;;;;;;19.12;56.23;101341.48;108946;1277;21971;-77
2023/10/06 09:45:32;;;;;;;9.10;6.00;;;;;;;19.25;54.79;101339.66;108998;1278;21986;-76
2023/10/06 09:48:21;;;;;;;12.40;9.30;;;;;;;19.30;54.72;101329.87;109105;1275;22051;-77
2023/10/06 09:51:24;;;;;;;12.30;5.40;;;;;;;19.48;54.82;101330.75;109126;1274;22821;-78
2023/10/06 09:54:19;;;;;;;9.20;4.90;;;;;;;19.62;53.58;101319.32;109263;1272;22022;-79
2023/10/06 09:57:37;;;;;;;8.80;5.80;;;;;;;19.71;53.86;101309.47;109259;1272;21979;-78
2023/10/06 10:00:16;;;;;;;9.10;5.10;;;;;;;19.98;53.12;101320.16;108660;1282;21987;-78
2023/10/06 10:03:06;;;;;;;8.90;5.50;;;;;;;19.95;51.73;101328.29;108323;1286;22028;-78
2023/10/06 10:05:38;;;;;;;6.80;4.80;;;;;;;19.78;50.98;101319.44;108343;1287;22044;-78
2023/10/06 10:08:16;;;;;;;11.10;5.80;;;;;;;19.48;50.77;101308.65;107929;1290;22008;-78
2023/10/06 10:11:04;;;;;;;8.80;5.80;;;;;;;19.19;51.72;101311.44;108126;1290;23100;-78
2023/10/06 10:13:56;;;;;;;10.90;5.20;;;;;;;19.16;52.89;101309.54;107857;1294;23077;-77
2023/10/06 10:17:00;;;;;;;8.80;5.50;;;;;;;19.25;52.46;101313.43;107976;1291;23124;-77
2023/10/06 10:19:43;;;;;;;9.80;4.90;;;;;;;19.16;51.98;101307.61;107563;1297;23894;-78
2023/10/06 10:22:18;;;;;;;9.00;4.90;;;;;;;18.96;52.20;101297.27;108021;1292;22068;-78
2023/10/06 10:25:13;;;;;;;9.70;4.80;;;;;;;18.92;53.00;101294.17;107874;1292;23660;-77
2023/10/06 10:28:17;;;;;;;9.80;5.00;;;;;;;18.96;52.91;101288.98;107830;1293;22417;-77
2023/10/06 10:31:01;;;;;;;9.60;4.90;;;;;;;18.96;52.58;101304.67;107946;1285;24334;-78
2023/10/06 10:33:47;;;;;;;8.40;5.20;;;;;;;18.88;52.98;101302.64;108575;1285;22422;-78
2023/10/06 10:37:05;;;;;;;8.20;5.10;;;;;;;19.20;54.60;101300.64;108545;1277;22000;-79
2023/10/06 10:40:21;;;;;;;6.70;4.20;;;;;;;19.58;53.51;101295.71;109572;1271;23042;-78
2023/10/06 10:43:05;;;;;;;11.00;4.90;;;;;;;19.67;52.65;101291.47;108885;1278;23743;-79
2023/10/06 10:45:54;;;;;;;10.40;3.90;;;;;;;19.71;52.22;101294.45;109002;1278;21996;-77
2023/10/06 10:48:37;;;;;;;6.20;4.00;;;;;;;19.83;52.17;101294.07;109056;1278;22324;-78
2023/10/06 10:52:06;;;;;;;9.70;5.30;;;;;;;19.97;52.15;101284.20;108958;1274;21989;-79
2023/10/06 10:54:40;;;;;;;7.50;4.50;;;;;;;20.03;51.57;101276.77;108972;1278;22012;-79
2023/10/06 10:57:21;;;;;;;5.20;4.40;;;;;;;19.96;50.97;101266.21;108792;1278;22089;-78
2023/10/06 11:03:04;;;;;;;8.80;3.90;;;;;;;19.77;51.75;101257.69;109342;1273;22017;-77
2023/10/06 11:05:41;;;;;;;5.50;3.30;;;;;;;19.80;52.03;101260.30;109371;1263;23115;-78
2023/10/06 11:08:16;;;;;;;9.30;4.70;;;;;;;19.78;51.67;101257.42;109414;1272;23012;-76
2023/10/06 11:10:58;;;;;;;8.30;3.90;;;;;;;19.70;51.31;101252.66;109400;1274;23891;-76
2023/10/06 11:13:31;;;;;;;6.80;3.90;;;;;;;19.53;51.24;101246.06;109195;1261;23064;-77
2023/10/06 11:16:28;;;;;;;8.00;4.00;;;;;;;19.38;51.68;101237.60;109357;1274;21980;-77
2023/10/06 11:19:04;;;;;;;10.70;4.00;;;;;;;19.40;52.41;101237.52;109725;1266;23578;-76
2023/10/06 11:21:55;;;;;;;6.30;3.80;;;;;;;19.44;52.36;101231.11;109444;1272;21979;-76
2023/10/06 11:24:28;;;;;;;7.70;4.70;;;;;;;19.39;51.98;101222.91;109665;1272;21953;-76
2023/10/06 11:27:22;;;;;;;6.50;3.80;;;;;;;19.33;52.26;101213.06;109375;1272;22517;-77
2023/10/06 11:29:59;;;;;;;5.70;3.20;;;;;;;19.20;52.26;101205.55;109539;1272;23810;-76
2023/10/06 11:36:07;;;;;;;3.90;2.60;;;;;;;19.04;52.72;101217.40;109545;1272;24399;-78
2023/10/06 11:39:02;;;;;;;26.20;4.40;;;;;;;19.07;53.14;101214.39;108817;1277;21998;-81
2023/10/06 11:41:43;;;;;;;6.20;2.90;;;;;;;19.17;52.95;101208.88;109212;1277;21779;-79
2023/10/06 11:44:18;;;;;;;4.80;2.90;;;;;;;19.20;52.60;101201.50;108992;1277;21992;-78
2023/10/06 11:47:05;;;;;;;7.70;2.90;;;;;;;19.20;52.52;101193.04;109147;1277;21997;-80
2023/10/06 11:50:04;;;;;;;8.50;4.30;;;;;;;19.15;52.45;101176.75;108923;1277;23789;-78
2023/10/06 11:52:43;;;;;;;4.20;2.90;;;;;;;19.14;52.28;101173.98;109153;1272;22261;-78
2023/10/06 11:55:29;;;;;;;5.70;2.80;;;;;;;19.12;52.48;101163.17;109107;1271;22031;-80
2023/10/06 11:58:08;;;;;;;5.60;2.80;;;;;;;19.13;52.61;101153.91;108958;1276;21989;-78
2023/10/06 12:00:49;;;;;;;12.10;2.80;;;;;;;19.18;52.65;101146.02;109024;1276;23065;-76
2023/10/06 12:03:34;;;;;;;;;;;;;;;19.17;52.32;101142.02;109321;1272;22177;-78
2023/10/06 12:06:12;;;;;;;4.60;2.30;;;;;;;19.00;52.42;101131.61;109455;1272;21990;-78
2023/10/06 12:08:52;;;;;;;4.10;2.90;;;;;;;19.10;52.58;101145.44;109492;1272;21995;-77
2023/10/06 12:11:22;;;;;;;6.10;3.10;;;;;;;19.15;52.30;101145.14;109655;1272;21981;-77
2023/10/06 12:13:52;;;;;;;9.10;3.40;;;;;;;19.14;52.20;101143.95;110066;1266;21982;-78
2023/10/06 12:16:25;;;;;;;6.40;3.10;;;;;;;19.12;52.03;101143.20;110139;1266;21993;-77
2023/10/06 12:19:00;;;;;;;7.40;3.80;;;;;;;19.06;52.11;101142.54;109712;1270;22132;-77
2023/10/06 12:21:36;;;;;;;4.20;2.70;;;;;;;19.01;52.36;101137.17;109477;1270;22011;-77
2023/10/06 12:24:11;;;;;;;14.50;3.90;;;;;;;19.02;52.53;101140.98;109906;1270;22087;-77
2023/10/06 12:26:46;;;;;;;6.20;3.90;;;;;;;19.07;52.69;101137.36;107135;1270;3048430;-78
2023/10/06 12:29:21;;;;;;;6.70;3.20;;;;;;;19.10;52.43;101121.79;109925;1262;23838;-77
2023/10/06 12:31:51;;;;;;;7.00;3.30;;;;;;;19.08;52.34;101115.44;109698;1268;21976;-78
2023/10/06 12:34:20;;;;;;;6.80;2.90;;;;;;;19.14;52.37;101121.56;109745;1269;21978;-79
2023/10/06 12:37:03;;;;;;;5.30;2.60;;;;;;;19.15;52.23;101114.99;109529;1270;23831;-76
2023/10/06 12:39:45;;;;;;;8.00;3.60;;;;;;;19.16;52.15;101104.35;109500;1270;22161;-77
2023/10/06 12:42:18;;;;;;;8.90;4.90;;;;;;;19.17;52.06;101091.20;109491;1270;23064;-77
2023/10/06 12:44:53;;;;;;;5.20;3.20;;;;;;;19.21;52.10;101082.55;109579;1270;23753;-76
2023/10/06 12:47:27;;;;;;;8.20;3.20;;;;;;;19.24;52.03;101078.58;109648;1269;21974;-77
2023/10/06 12:50:04;;;;;;;7.30;3.40;;;;;;;19.27;51.85;101081.59;109694;1266;23167;-76
2023/10/06 12:52:41;;;;;;;10.60;3.30;;;;;;;19.29;51.86;101080.07;110136;1266;22073;-77
2023/10/06 12:55:14;;;;;;;8.00;2.80;;;;;;;19.34;52.00;101079.58;109332;1273;21975;-77
2023/10/06 12:57:44;;;;;;;10.50;4.20;;;;;;;19.37;51.75;101080.98;109295;1271;23723;-77
2023/10/06 13:00:19;;;;;;;7.70;2.90;;;;;;;19.41;51.79;101076.98;109276;1272;22047;-77
2023/10/06 13:02:51;;;;;;;8.40;3.60;;;;;;;19.44;51.58;101073.61;109480;1273;22547;-79
2023/10/06 13:05:31;;;;;;;6.30;3.10;;;;;;;19.46;51.56;101072.08;109366;1273;22047;-78
2023/10/06 13:08:09;;;;;;;7.60;3.00;;;;;;;19.46;51.35;101068.72;109534;1272;23225;-78
2023/10/06 13:10:44;;;;;;;5.40;3.00;;;;;;;19.44;51.07;101072.95;109342;1272;23958;-78
2023/10/06 13:13:16;;;;;;;;;;;;;;;19.37;50.86;101073.89;109744;1266;22052;-77
2023/10/06 13:15:46;;;;;;;;;;;;;;;19.22;51.16;101068.85;109451;1272;21961;-78
2023/10/06 13:18:17;;;;;;;5.20;2.80;;;;;;;19.09;51.30;101073.20;109523;1272;23072;-77
2023/10/06 13:20:52;;;;;;;5.00;2.50;;;;;;;19.07;51.56;101071.18;109595;1262;23065;-78
2023/10/06 13:23:26;;;;;;;7.80;4.40;;;;;;;19.09;51.76;101072.46;109491;1272;21984;-77
2023/10/06 13:26:00;;;;;;;7.60;3.10;;;;;;;19.12;51.74;101068.42;109349;1272;22033;-78
2023/10/06 13:28:34;;;;;;;7.70;2.90;;;;;;;19.11;51.85;101062.11;109023;1274;23035;-77
2023/10/06 13:31:10;;;;;;;7.60;2.60;;;;;;;19.09;51.66;101056.76;109078;1271;23132;-78
2023/10/06 13:33:43;;;;;;;13.70;3.00;;;;;;;19.01;51.55;101049.67;109129;1270;23132;-76
2023/10/06 13:36:15;;;;;;;6.10;2.80;;;;;;;18.98;51.82;101047.40;109569;1270;22000;-78
2023/10/06 13:38:46;;;;;;;8.60;3.30;;;;;;;18.98;51.85;101043.02;109765;1270;23032;-77
2023/10/06 13:41:18;;;;;;;;;;;;;;;18.94;51.97;101041.11;109527;1270;21962;-78
2023/10/06 13:43:49;;;;;;;6.00;3.10;;;;;;;18.84;52.26;101039.61;110062;1266;22010;-79
2023/10/06 13:46:20;;;;;;;8.80;3.20;;;;;;;18.86;52.38;101039.34;110459;1266;22014;-81
2023/10/06 13:48:52;;;;;;;9.90;3.20;;;;;;;18.89;52.39;101038.63;110495;1266;21970;-79
2023/10/06 13:51:28;;;;;;;8.70;3.10;;;;;;;18.89;52.39;101028.70;110252;1266;22019;-80
2023/10/06 13:54:02;;;;;;;6.70;3.20;;;;;;;18.87;52.55;101020.57;110421;1266;22009;-81
2023/10/06 13:56:42;;;;;;;8.20;3.50;;;;;;;18.80;52.48;101019.95;110464;1266;23040;-79
2023/10/06 13:59:20;;;;;;;7.10;3.70;;;;;;;18.77;52.85;101018.92;110364;1266;21982;-82
2023/10/06 14:01:50;;;;;;;;;;;;;;;18.78;53.05;101015.84;110521;1266;21973;-79
2023/10/06 14:04:23;;;;;;;13.70;4.70;;;;;;;18.68;53.22;101013.98;110643;1266;24371;-80
2023/10/06 14:06:55;;;;;;;8.50;3.50;;;;;;;18.65;53.28;101016.96;110410;1266;21987;-80
2023/10/06 14:09:25;;;;;;;11.10;3.40;;;;;;;18.64;53.42;101011.72;110339;1266;22127;-81
2023/10/06 14:11:55;;;;;;;7.80;4.00;;;;;;;18.66;53.52;101000.15;110429;1266;22060;-83
2023/10/06 14:17:32;;;;;;;6.50;3.70;;;;;;;18.62;53.60;100985.42;110386;1266;21982;-79
2023/10/06 14:20:23;;;;;;;8.50;3.20;;;;;;;18.59;53.58;100975.00;110532;1266;21974;-82
2023/10/06 14:23:03;;;;;;;7.90;4.30;;;;;;;18.56;53.73;100964.27;110399;1266;21991;-79
2023/10/06 14:25:50;;;;;;;11.20;4.80;;;;;;;18.56;53.92;100955.49;110251;1266;23765;-79
2023/10/06 14:28:30;;;;;;;7.20;4.00;;;;;;;18.58;54.14;100949.70;110207;1266;23775;-79
2023/10/06 14:31:16;;;;;;;11.00;3.60;;;;;;;18.61;54.22;100946.52;109943;1266;21971;-79
2023/10/06 14:34:09;;;;;;;6.60;4.40;;;;;;;18.60;54.33;100940.91;110532;1266;23061;-77
2023/10/06 14:36:43;;;;;;;9.30;4.20;;;;;;;18.60;54.22;100941.29;110145;1267;21980;-79
2023/10/06 14:47:55;;;;;;;5.40;3.20;;;;;;;18.51;54.51;100926.17;110476;1266;22464;-77
2023/10/06 14:50:40;;;;;;;8.50;3.50;;;;;;;18.54;54.69;100923.38;109883;1267;22429;-78
2023/10/06 14:53:13;;;;;;;11.10;3.90;;;;;;;18.56;54.65;100923.41;110578;1267;21992;-80
2023/10/06 14:55:47;;;;;;;5.80;3.30;;;;;;;18.57;54.63;100921.22;110527;1265;23713;-79
2023/10/06 14:58:23;;;;;;;6.90;2.90;;;;;;;18.58;54.56;100918.52;110103;1267;23048;-79
2023/10/06 15:01:02;;;;;;;5.50;3.30;;;;;;;18.54;54.54;100907.13;109970;1270;21960;-78
2023/10/06 15:03:49;;;;;;;9.40;3.80;;;;;;;18.51;54.61;100897.85;109395;1271;22085;-77
2023/10/06 15:06:24;;;;;;;8.10;3.50;;;;;;;18.57;54.60;100908.73;109224;1261;21979;-79
2023/10/06 15:09:17;;;;;;;9.10;4.20;;;;;;;18.54;54.72;100903.27;108940;1274;22086;-79
2023/10/06 15:11:56;;;;;;;7.40;3.20;;;;;;;18.51;54.82;100894.63;109064;1275;23177;-77
2023/10/06 15:14:28;;;;;;;9.20;3.30;;;;;;;18.48;54.77;100889.52;109205;1276;22118;-80
2023/10/06 15:17:05;;;;;;;8.50;3.90;;;;;;;18.47;54.75;100887.85;108947;1270;23041;-78
2023/10/06 15:19:50;;;;;;;6.80;3.60;;;;;;;18.37;54.95;100872.40;109014;1276;22008;-78
2023/10/06 15:22:34;;;;;;;8.30;3.30;;;;;;;18.39;54.92;100878.13;109056;1276;23151;-78
2023/10/06 15:25:14;;;;;;;10.10;3.60;;;;;;;18.38;55.05;100875.14;109272;1276;21990;-77
2023/10/06 15:27:51;;;;;;;8.00;3.70;;;;;;;18.39;55.07;100863.65;109091;1273;21950;-78